Time;durP1;ratioP1;P1;durP2;ratioP2;P2;SDS_P1;SDS_P2;PMS_P1;PMS_P2;Temp;Humidity;BMP_temperature;BMP_pressure;BME280_temperature;BME280_humidity;BME280_pressure;Samples;Min_cycle;Max_cycle;Signal;HPM_P1;HPM_P2
2023/01/20 00:00:49;;;;;;;40.65;24.67;;;;;;;6.17;57.91;100951.66;6182065;23;20021;-63
2023/01/20 00:03:16;;;;;;;39.13;23.83;;;;;;;6.17;57.87;100953.47;6181502;22;20024;-63
2023/01/20 00:05:50;;;;;;;37.92;24.27;;;;;;;6.15;57.86;100950.88;6181859;23;20096;-63
2023/01/20 00:08:16;;;;;;;38.53;24.98;;;;;;;6.15;57.97;100958.88;6182066;23;20403;-63
2023/01/20 00:10:43;;;;;;;37.47;24.75;;;;;;;6.14;57.99;100967.81;6181844;23;20066;-62
2023/01/20 00:13:09;;;;;;;38.92;24.30;;;;;;;6.10;57.93;100962.72;6181383;23;20325;-64
2023/01/20 00:15:36;;;;;;;42.58;24.92;;;;;;;6.07;57.93;100958.41;6181556;23;20025;-63
2023/01/20 00:18:02;;;;;;;43.67;24.95;;;;;;;6.08;58.01;100965.47;6182004;23;20017;-63
2023/01/20 00:20:29;;;;;;;43.30;24.85;;;;;;;6.09;58.12;100964.50;6181583;23;20017;-62
2023/01/20 00:22:56;;;;;;;40.45;25.10;;;;;;;6.12;58.15;100963.50;6181257;23;20023;-63
2023/01/20 00:25:23;;;;;;;42.83;24.67;;;;;;;6.14;58.00;100962.47;6181551;23;20380;-63
2023/01/20 00:27:52;;;;;;;40.97;24.77;;;;;;;6.18;58.14;100968.50;6181345;23;20513;-63
2023/01/20 00:30:18;;;;;;;37.40;24.30;;;;;;;6.17;58.15;100985.47;6181638;23;20017;-63
2023/01/20 00:32:45;;;;;;;37.38;24.02;;;;;;;6.17;58.21;100980.13;6181574;22;20017;-63
2023/01/20 00:35:12;;;;;;;39.70;24.60;;;;;;;6.16;58.08;100970.41;6181134;23;20100;-63
2023/01/20 00:37:39;;;;;;;40.38;24.67;;;;;;;6.15;58.10;100974.88;6181556;23;20017;-63
2023/01/20 00:40:06;;;;;;;41.38;25.70;;;;;;;6.16;58.16;100987.25;6181467;23;20104;-64
2023/01/20 00:42:32;;;;;;;41.75;25.67;;;;;;;6.14;58.22;100980.28;6181711;23;20020;-64
2023/01/20 00:44:59;;;;;;;40.75;24.75;;;;;;;6.13;58.16;100984.75;6181256;23;20021;-64
2023/01/20 00:47:26;;;;;;;40.28;24.52;;;;;;;6.12;58.13;100987.50;6181705;23;20041;-63
2023/01/20 00:49:52;;;;;;;42.65;26.02;;;;;;;6.13;58.10;100991.88;6181578;23;20020;-63
2023/01/20 00:52:19;;;;;;;40.00;25.38;;;;;;;6.11;58.12;100988.44;6181077;23;20021;-63
2023/01/20 00:54:45;;;;;;;44.63;26.60;;;;;;;6.10;58.18;100987.56;6181254;23;20047;-63
2023/01/20 00:57:12;;;;;;;43.00;25.50;;;;;;;6.10;58.17;100986.72;6181764;23;20074;-62
2023/01/20 00:59:38;;;;;;;42.05;25.85;;;;;;;6.07;58.11;100990.38;6181166;23;20021;-63
2023/01/20 01:02:05;;;;;;;41.25;25.08;;;;;;;6.06;58.25;100991.34;6181174;23;20013;-63
2023/01/20 01:04:31;;;;;;;39.42;23.85;;;;;;;6.03;58.28;100994.16;6181492;22;20021;-62
2023/01/20 01:06:58;;;;;;;36.58;23.73;;;;;;;6.01;58.22;100999.56;6188941;23;20040;-63
2023/01/20 01:09:25;;;;;;;36.30;21.90;;;;;;;6.01;58.26;100996.91;6182906;23;20016;-63
2023/01/20 01:11:51;;;;;;;36.10;21.88;;;;;;;6.02;58.35;101000.41;6181040;23;20024;-64
2023/01/20 01:14:18;;;;;;;28.42;18.40;;;;;;;6.02;58.35;101000.41;6155370;23;20428;-63
2023/01/20 01:16:44;;;;;;;28.42;18.52;;;;;;;6.01;58.48;101004.88;6181444;23;20025;-63
2023/01/20 01:19:11;;;;;;;27.48;17.83;;;;;;;6.03;58.44;101010.16;6181504;23;20013;-63
2023/01/20 01:21:37;;;;;;;27.75;17.15;;;;;;;6.03;58.41;101007.47;6180796;23;20390;-63
2023/01/20 01:24:04;;;;;;;24.83;16.05;;;;;;;5.99;58.32;101005.91;6181177;23;20017;-63
2023/01/20 01:26:30;;;;;;;25.27;16.27;;;;;;;5.92;58.34;100999.97;6181256;22;20021;-63
2023/01/20 01:28:58;;;;;;;28.98;18.90;;;;;;;5.89;58.25;101004.56;6180951;23;20017;-63
2023/01/20 01:31:24;;;;;;;32.10;19.83;;;;;;;5.85;58.30;101009.19;6180911;23;20013;-63
2023/01/20 01:33:51;;;;;;;29.90;18.77;;;;;;;5.85;58.38;101008.31;6180731;23;20444;-63
2023/01/20 01:36:17;;;;;;;33.10;19.98;;;;;;;5.84;58.54;101011.94;6181303;23;20009;-63
2023/01/20 01:38:44;;;;;;;31.92;20.63;;;;;;;5.83;58.59;101012.88;6181379;23;20013;-63
2023/01/20 01:41:24;;;;;;;32.00;20.23;;;;;;;5.85;58.65;101022.50;6151411;23;20025;-63
2023/01/20 01:44:20;;;;;;;30.80;19.23;;;;;;;5.89;58.71;101029.44;6150886;23;20109;-63
2023/01/20 01:46:47;;;;;;;31.98;18.35;;;;;;;5.91;58.56;101032.91;6152555;23;20021;-63
2023/01/20 01:49:21;;;;;;;29.55;17.95;;;;;;;5.90;58.61;101024.97;6153201;23;20020;-63
2023/01/20 01:51:55;;;;;;;28.00;17.50;;;;;;;5.88;58.63;101027.69;6126439;23;20016;-63
2023/01/20 01:54:26;;;;;;;30.87;18.37;;;;;;;5.88;58.61;101035.69;6127050;23;20383;-63
2023/01/20 01:56:53;;;;;;;29.80;19.40;;;;;;;5.89;58.79;101033.88;6152838;22;20017;-63
2023/01/20 01:59:20;;;;;;;31.05;18.45;;;;;;;5.88;58.62;101042.81;6152284;23;20029;-63
2023/01/20 02:01:52;;;;;;;30.48;17.50;;;;;;;5.86;58.60;101039.38;6126378;22;20491;-63
2023/01/20 02:04:22;;;;;;;32.50;19.67;;;;;;;5.83;58.74;101040.38;6152510;23;20037;-63
2023/01/20 02:06:53;;;;;;;33.22;19.60;;;;;;;5.79;58.64;101041.47;6152846;23;20024;-63
2023/01/20 02:09:20;;;;;;;37.08;20.70;;;;;;;5.77;58.67;101038.00;6152774;23;20014;-64
2023/01/20 02:11:52;;;;;;;36.97;20.67;;;;;;;5.75;58.72;101034.56;6152682;23;20022;-64
2023/01/20 02:14:23;;;;;;;44.97;24.02;;;;;;;5.72;58.71;101032.91;6152756;23;20314;-64
2023/01/20 02:17:22;;;;;;;41.85;23.25;;;;;;;5.69;58.72;101038.38;6126951;23;20018;-63
2023/01/20 02:20:31;;;;;;;42.20;23.08;;;;;;;5.66;58.80;101035.88;6152719;22;20021;-63
2023/01/20 02:23:03;;;;;;;40.05;22.50;;;;;;;5.66;58.83;101033.19;6151897;23;20543;-63
2023/01/20 02:25:48;;;;;;;47.30;25.45;;;;;;;5.67;58.87;101044.72;6126547;23;20025;-64
2023/01/20 02:28:36;;;;;;;46.40;24.90;;;;;;;5.66;58.92;101045.66;6152338;23;20060;-63
2023/01/20 02:31:27;;;;;;;44.67;24.42;;;;;;;5.63;58.96;101037.81;6152546;22;20413;-63
2023/01/20 02:34:03;;;;;;;43.45;24.80;;;;;;;5.61;58.94;101045.88;6152573;23;20017;-63
2023/01/20 02:36:59;;;;;;;45.15;24.70;;;;;;;5.63;59.07;101060.00;6152500;23;20401;-63
2023/01/20 02:39:43;;;;;;;48.90;25.50;;;;;;;5.63;58.98;101057.31;6158347;23;20340;-64
2023/01/20 02:42:15;;;;;;;45.58;24.05;;;;;;;5.65;58.85;101063.44;6182254;23;20252;-64
2023/01/20 02:44:52;;;;;;;44.30;24.00;;;;;;;5.64;59.00;101053.72;6182347;22;20431;-62
2023/01/20 02:47:34;;;;;;;46.42;24.42;;;;;;;5.64;59.04;101053.72;6182041;23;20451;-63
2023/01/20 02:50:12;;;;;;;47.95;25.08;;;;;;;5.67;59.12;101052.72;6182281;23;20027;-62
2023/01/20 02:52:43;;;;;;;41.83;23.77;;;;;;;5.68;59.09;101052.63;6182213;23;20017;-63
2023/01/20 02:55:16;;;;;;;48.67;26.67;;;;;;;5.69;58.97;101059.69;6182060;23;20017;-63
2023/01/20 02:57:47;;;;;;;46.53;24.58;;;;;;;5.70;58.78;101074.75;6182048;22;20017;-63
2023/01/20 03:00:24;;;;;;;47.47;23.52;;;;;;;5.68;59.09;101067.75;6182092;23;20013;-63
2023/01/20 03:02:53;;;;;;;44.20;24.38;;;;;;;5.68;59.17;101071.28;6181828;23;20037;-64
2023/01/20 03:05:24;;;;;;;43.22;24.38;;;;;;;5.71;59.13;101073.81;6181785;23;20017;-64
2023/01/20 03:07:54;;;;;;;45.80;24.92;;;;;;;5.72;59.10;101072.00;6155964;23;20013;-63
2023/01/20 03:10:25;;;;;;;41.78;23.15;;;;;;;5.73;59.09;101069.28;6181877;23;20024;-63
2023/01/20 03:12:57;;;;;;;44.30;23.58;;;;;;;5.76;59.14;101073.59;6181988;23;20017;-63
2023/01/20 03:15:34;;;;;;;46.10;24.73;;;;;;;5.78;59.17;101073.53;6181897;23;20017;-64
2023/01/20 03:18:00;;;;;;;42.20;23.92;;;;;;;5.79;59.19;101070.78;6182109;23;20513;-64
2023/01/20 03:20:27;;;;;;;44.50;23.55;;;;;;;5.82;59.11;101075.97;6182019;22;20021;-64
2023/01/20 03:22:53;;;;;;;46.28;24.55;;;;;;;5.82;58.95;101075.09;6181817;23;20025;-64
2023/01/20 03:25:20;;;;;;;39.83;22.85;;;;;;;5.78;58.95;101079.72;6182031;23;20086;-63
2023/01/20 03:27:47;;;;;;;41.53;23.30;;;;;;;5.75;59.03;101080.72;6181850;23;20066;-64
2023/01/20 03:30:15;;;;;;;45.20;23.10;;;;;;;5.75;59.13;101079.84;6181971;23;20017;-64
2023/01/20 03:32:45;;;;;;;41.22;21.45;;;;;;;5.71;59.01;101073.81;6181678;23;20017;-63
2023/01/20 03:35:14;;;;;;;38.22;22.02;;;;;;;5.72;59.06;101078.19;6181543;23;20044;-64
2023/01/20 03:37:43;;;;;;;39.95;21.95;;;;;;;5.73;59.09;101085.25;6182563;23;20420;-63
2023/01/20 03:40:11;;;;;;;36.88;20.98;;;;;;;5.75;59.11;101082.53;6181979;22;20013;-63
2023/01/20 03:42:47;;;;;;;44.78;22.40;;;;;;;5.74;59.15;101073.66;6181698;23;20093;-63
2023/01/20 03:45:17;;;;;;;;;;;;;;;5.74;59.07;101072.81;6182747;23;20105;-63
2023/01/20 03:47:49;;;;;;;39.08;20.25;;;;;;;5.79;58.92;101073.44;6181656;23;19916;-63
2023/01/20 03:50:24;;;;;;;39.80;20.92;;;;;;;5.79;59.05;101073.44;6181861;23;20045;-64
2023/01/20 03:53:20;;;;;;;36.97;19.73;;;;;;;5.79;59.03;101076.13;6181785;22;20020;-64
2023/01/20 03:56:00;;;;;;;31.75;18.30;;;;;;;5.82;59.08;101080.44;6187911;23;20029;-63
2023/01/20 03:58:31;;;;;;;32.72;18.42;;;;;;;5.80;59.00;101080.50;6182032;23;20198;-63
2023/01/20 04:01:02;;;;;;;39.30;20.70;;;;;;;5.75;58.84;101085.19;6181670;23;20020;-63
2023/01/20 04:03:47;;;;;;;39.28;19.65;;;;;;;5.73;58.96;101095.06;6181322;23;20466;-63
2023/01/20 04:06:16;;;;;;;38.08;20.23;;;;;;;5.72;58.67;101099.53;6181610;23;20498;-64
2023/01/20 04:08:49;;;;;;;42.40;21.08;;;;;;;5.74;59.00;101089.66;6181125;23;20049;-63
2023/01/20 04:11:16;;;;;;;36.85;19.70;;;;;;;5.73;59.07;101095.91;6181957;23;20013;-63
2023/01/20 04:13:43;;;;;;;38.20;20.13;;;;;;;5.75;59.06;101096.72;6181520;23;20097;-63
2023/01/20 04:16:14;;;;;;;38.08;20.10;;;;;;;5.76;59.04;101100.25;6181840;23;20096;-64
2023/01/20 04:18:45;;;;;;;35.22;19.58;;;;;;;5.73;58.94;101101.25;6181894;23;20009;-63
2023/01/20 04:21:23;;;;;;;35.25;19.17;;;;;;;5.69;58.93;101102.34;6181819;23;20017;-63
2023/01/20 04:24:22;;;;;;;38.00;20.63;;;;;;;5.66;59.08;101105.13;6180872;23;20454;-63
2023/01/20 04:26:48;;;;;;;36.78;19.77;;;;;;;5.64;59.01;101104.34;6182180;23;20017;-63
2023/01/20 04:29:15;;;;;;;37.33;20.20;;;;;;;5.63;59.10;101099.94;6181369;23;20108;-63
2023/01/20 04:31:41;;;;;;;34.88;19.15;;;;;;;5.66;59.10;101115.78;6181561;22;20105;-63
2023/01/20 04:34:12;;;;;;;36.15;19.60;;;;;;;5.66;59.07;101107.81;6181710;23;20087;-63
2023/01/20 04:36:39;;;;;;;31.95;18.52;;;;;;;5.69;59.06;101106.78;6181639;23;20017;-63
2023/01/20 04:39:05;;;;;;;34.03;18.90;;;;;;;5.72;59.22;101104.84;6181313;23;20432;-63
2023/01/20 04:41:32;;;;;;;36.22;19.83;;;;;;;5.72;59.18;101102.19;6181325;23;20387;-63
2023/01/20 04:43:59;;;;;;;38.42;18.98;;;;;;;5.73;59.13;101106.56;6181383;23;20017;-63
2023/01/20 04:46:25;;;;;;;34.00;18.55;;;;;;;5.74;59.13;101110.97;6181380;23;20020;-63
2023/01/20 04:48:52;;;;;;;37.05;19.35;;;;;;;5.78;59.14;101108.16;6181582;23;20117;-63
2023/01/20 04:51:18;;;;;;;39.00;20.05;;;;;;;5.79;59.13;101116.09;6181268;22;20462;-64
2023/01/20 04:53:45;;;;;;;35.25;18.58;;;;;;;5.80;58.99;101111.63;6181107;23;20074;-63
2023/01/20 04:56:13;;;;;;;34.47;18.65;;;;;;;5.80;59.05;101114.28;6181120;23;20013;-63
2023/01/20 04:58:41;;;;;;;35.17;19.27;;;;;;;5.78;59.01;101116.16;6181615;22;20013;-63
2023/01/20 05:01:08;;;;;;;34.22;19.23;;;;;;;5.75;59.07;101115.38;6181444;22;20013;-64
2023/01/20 05:03:35;;;;;;;32.92;17.77;;;;;;;5.75;59.13;101115.38;6181065;23;20020;-63
2023/01/20 05:06:02;;;;;;;34.58;19.33;;;;;;;5.77;58.93;101125.09;6181532;22;20071;-63
2023/01/20 05:08:28;;;;;;;36.85;20.15;;;;;;;5.77;59.09;101120.63;6181514;22;20017;-64
2023/01/20 05:10:55;;;;;;;36.80;20.05;;;;;;;5.79;59.03;101120.56;6181336;23;20117;-63
2023/01/20 05:13:21;;;;;;;37.00;19.63;;;;;;;5.83;59.11;101120.34;6180941;23;20084;-63
2023/01/20 05:15:48;;;;;;;35.60;19.60;;;;;;;5.82;59.13;101121.28;6181096;23;20078;-63
2023/01/20 05:18:15;;;;;;;36.30;19.65;;;;;;;5.82;59.16;101120.41;6181117;23;20039;-63
2023/01/20 05:20:44;;;;;;;38.50;19.45;;;;;;;5.83;59.10;101124.81;6182020;23;20047;-64
2023/01/20 05:23:10;;;;;;;36.92;19.75;;;;;;;5.83;59.05;101124.81;6182058;23;20084;-64
2023/01/20 05:25:37;;;;;;;38.55;20.67;;;;;;;5.82;59.05;101129.28;6182152;23;20100;-63
2023/01/20 05:28:04;;;;;;;36.25;20.67;;;;;;;5.80;59.15;101130.28;6182870;23;20017;-62
2023/01/20 05:30:31;;;;;;;36.88;20.50;;;;;;;5.79;59.13;101139.22;6182443;23;20024;-63
2023/01/20 05:32:57;;;;;;;40.63;22.17;;;;;;;5.78;59.15;101137.47;6182124;23;20719;-63
2023/01/20 05:35:24;;;;;;;34.92;20.02;;;;;;;5.78;59.07;101134.81;6182677;23;20055;-63
2023/01/20 05:37:54;;;;;;;37.17;21.52;;;;;;;5.78;58.97;101126.81;6182437;23;20017;-64
2023/01/20 05:40:21;;;;;;;37.60;21.65;;;;;;;5.78;59.05;101137.47;6182298;23;20009;-64
2023/01/20 05:42:48;;;;;;;34.13;21.08;;;;;;;5.78;59.14;101132.16;6182392;23;20017;-63
2023/01/20 05:45:15;;;;;;;37.75;21.25;;;;;;;5.77;59.13;101139.28;6182251;22;20021;-63
2023/01/20 05:47:42;;;;;;;38.50;20.98;;;;;;;5.75;58.98;101128.69;6182487;23;20126;-63
2023/01/20 05:50:09;;;;;;;34.95;20.60;;;;;;;5.77;58.92;101135.75;6182381;23;20443;-64
2023/01/20 05:52:36;;;;;;;35.38;20.38;;;;;;;5.77;59.07;101138.41;6181855;23;20017;-63
2023/01/20 05:55:03;;;;;;;38.50;21.60;;;;;;;5.78;59.16;101142.81;6182292;23;20096;-63
2023/01/20 05:57:30;;;;;;;40.47;22.17;;;;;;;5.79;59.15;101144.53;6182343;23;20085;-63
2023/01/20 05:59:57;;;;;;;39.92;21.92;;;;;;;5.79;59.15;101137.41;6182491;23;20059;-64
2023/01/20 06:02:23;;;;;;;38.33;21.00;;;;;;;5.78;58.93;101146.34;6182109;23;20013;-63
2023/01/20 06:04:50;;;;;;;38.03;21.88;;;;;;;5.78;59.06;101151.66;6182141;23;20440;-63
2023/01/20 06:07:16;;;;;;;38.03;21.52;;;;;;;5.79;59.05;101147.19;6182030;23;20472;-63
2023/01/20 06:09:43;;;;;;;39.90;21.83;;;;;;;5.83;59.10;101144.31;6182115;23;20017;-63
2023/01/20 06:12:09;;;;;;;40.38;22.40;;;;;;;5.81;58.98;101142.66;6181658;23;20017;-62
2023/01/20 06:14:36;;;;;;;41.67;22.52;;;;;;;5.79;58.95;101148.06;6182369;23;20013;-64
2023/01/20 06:17:03;;;;;;;42.10;23.42;;;;;;;5.74;58.95;101150.94;6182274;23;20052;-62
2023/01/20 06:19:30;;;;;;;34.75;21.17;;;;;;;5.71;58.98;101153.75;6182226;22;20036;-63
2023/01/20 06:21:57;;;;;;;38.63;20.30;;;;;;;5.68;59.00;101151.22;6181863;23;20017;-63
2023/01/20 06:24:23;;;;;;;34.83;21.42;;;;;;;5.66;58.94;101153.09;6181876;23;20017;-64
2023/01/20 06:26:50;;;;;;;36.45;20.60;;;;;;;5.66;58.95;101154.91;6182213;23;20014;-63
2023/01/20 06:29:16;;;;;;;38.50;20.77;;;;;;;5.67;58.95;101159.28;6182181;23;20024;-63
2023/01/20 06:31:44;;;;;;;38.40;21.48;;;;;;;5.66;58.98;101153.09;6181822;23;20009;-63
2023/01/20 06:34:11;;;;;;;41.55;21.95;;;;;;;5.68;59.10;101156.56;6181976;23;20440;-63
2023/01/20 06:36:37;;;;;;;41.60;22.52;;;;;;;5.69;58.99;101152.97;6181822;22;20343;-63
2023/01/20 06:39:04;;;;;;;42.00;23.35;;;;;;;5.70;59.11;101153.81;6181907;23;20055;-63
2023/01/20 06:41:31;;;;;;;40.40;22.90;;;;;;;5.70;58.89;101159.16;6181903;23;20017;-63
2023/01/20 06:43:57;;;;;;;40.97;23.80;;;;;;;5.67;58.99;101164.63;6181904;23;20017;-63
2023/01/20 06:46:24;;;;;;;49.53;24.92;;;;;;;5.67;59.07;101170.81;6181800;23;20452;-63
2023/01/20 06:48:51;;;;;;;39.25;22.50;;;;;;;5.67;59.07;101175.28;6182295;23;20021;-64
2023/01/20 06:51:19;;;;;;;46.72;24.80;;;;;;;5.67;59.02;101177.94;6182111;23;20066;-63
2023/01/20 06:53:46;;;;;;;41.67;22.20;;;;;;;5.65;58.89;101171.81;6182043;23;20017;-63
2023/01/20 06:56:17;;;;;;;45.30;24.58;;;;;;;5.58;59.00;101181.03;6182003;23;20340;-63
2023/01/20 06:58:43;;;;;;;44.97;24.70;;;;;;;5.53;59.05;101175.91;6182202;23;20159;-63
2023/01/20 07:01:17;;;;;;;42.80;23.58;;;;;;;5.50;59.02;101183.16;6181995;23;20017;-63
2023/01/20 07:03:44;;;;;;;44.38;24.42;;;;;;;5.50;58.91;101181.38;6181652;23;20044;-63
2023/01/20 07:06:15;;;;;;;44.33;22.95;;;;;;;5.51;59.22;101188.44;6182356;23;20028;-63
2023/01/20 07:08:43;;;;;;;47.00;23.98;;;;;;;5.48;59.21;101185.91;6182748;23;20498;-66
2023/01/20 07:11:10;;;;;;;49.38;25.23;;;;;;;5.43;59.22;101191.44;6181981;23;20040;-65
2023/01/20 07:13:37;;;;;;;44.47;24.58;;;;;;;5.39;59.00;101192.50;6181205;22;20020;-67
2023/01/20 07:16:04;;;;;;;43.13;24.42;;;;;;;5.37;59.21;101190.84;6182422;23;20451;-67
2023/01/20 07:18:30;;;;;;;46.55;24.23;;;;;;;5.35;59.33;101190.91;6182021;23;20501;-67
2023/01/20 07:20:57;;;;;;;42.65;23.98;;;;;;;5.34;59.29;101190.97;6181948;23;20016;-66
2023/01/20 07:23:23;;;;;;;42.78;22.13;;;;;;;5.33;59.35;101187.44;6181645;23;20024;-66
2023/01/20 07:26:05;;;;;;;48.13;23.63;;;;;;;5.35;59.47;101185.59;6156101;23;20021;-67
2023/01/20 07:28:33;;;;;;;43.45;21.42;;;;;;;5.38;59.36;101184.59;6182189;23;20019;-66
2023/01/20 07:31:16;;;;;;;46.70;22.48;;;;;;;5.37;59.35;101196.16;6182493;23;20017;-67
2023/01/20 07:33:43;;;;;;;40.72;21.73;;;;;;;5.36;59.34;101207.75;6181956;22;20017;-66
2023/01/20 07:36:11;;;;;;;42.05;22.83;;;;;;;5.36;59.44;101205.09;6182134;23;20117;-67
2023/01/20 07:38:38;;;;;;;39.67;21.38;;;;;;;5.36;59.42;101205.09;6182133;23;20017;-66
2023/01/20 07:41:09;;;;;;;43.92;22.85;;;;;;;5.36;59.89;101211.28;6182587;23;20444;-66
2023/01/20 07:43:36;;;;;;;43.95;22.58;;;;;;;5.39;59.50;101203.16;6190189;23;20017;-67
2023/01/20 07:46:04;;;;;;;42.67;21.80;;;;;;;5.40;59.46;101220.00;6181650;23;20435;-67
2023/01/20 07:48:32;;;;;;;45.63;24.25;;;;;;;5.40;59.59;101212.88;6181939;23;20101;-67
2023/01/20 07:51:04;;;;;;;46.88;23.90;;;;;;;5.39;59.52;101211.16;6181823;23;20021;-67
2023/01/20 07:53:45;;;;;;;47.05;23.40;;;;;;;5.39;59.62;101202.28;6181844;22;20092;-66
2023/01/20 07:56:20;;;;;;;47.42;24.13;;;;;;;5.41;59.55;101216.41;6182524;23;20070;-66
2023/01/20 07:58:49;;;;;;;46.55;24.23;;;;;;;5.40;59.49;101215.53;6182150;23;20020;-67
2023/01/20 08:01:19;;;;;;;42.03;22.23;;;;;;;5.40;59.60;101217.34;6155444;22;20021;-67
2023/01/20 08:03:46;;;;;;;49.58;23.65;;;;;;;5.40;59.57;101220.88;6182331;22;20040;-68
2023/01/20 08:06:15;;;;;;;40.10;21.48;;;;;;;5.43;59.71;101217.19;6181431;23;20017;-67
2023/01/20 08:08:42;;;;;;;46.17;22.50;;;;;;;5.43;59.75;101220.72;6181706;23;20009;-66
2023/01/20 08:11:11;;;;;;;42.17;22.63;;;;;;;5.46;59.60;101214.41;6181050;22;20021;-67
2023/01/20 08:13:38;;;;;;;44.00;21.58;;;;;;;5.49;59.65;101216.06;6181534;23;20017;-67
2023/01/20 08:16:07;;;;;;;43.90;22.90;;;;;;;5.49;59.70;101218.72;6181544;23;20440;-67
2023/01/20 08:18:35;;;;;;;39.70;22.52;;;;;;;5.49;59.58;101219.59;6181616;23;20485;-67
2023/01/20 08:21:05;;;;;;;42.95;22.15;;;;;;;5.50;59.76;101218.66;6181467;23;20017;-67
2023/01/20 08:23:35;;;;;;;43.47;22.45;;;;;;;5.53;59.63;101226.53;6181833;23;20018;-68
2023/01/20 08:26:04;;;;;;;48.50;23.85;;;;;;;5.54;59.71;101227.38;6179550;22;20017;-67
2023/01/20 08:28:32;;;;;;;41.60;22.55;;;;;;;5.55;59.66;101229.97;6181046;23;20387;-67
2023/01/20 08:31:07;;;;;;;43.30;22.02;;;;;;;5.55;59.67;101227.31;6181031;23;20390;-67
2023/01/20 08:33:34;;;;;;;44.47;22.20;;;;;;;5.55;59.75;101240.63;6181014;22;20104;-67
2023/01/20 08:36:06;;;;;;;43.63;22.58;;;;;;;5.53;59.71;101226.53;6181394;23;20021;-67
2023/01/20 08:38:34;;;;;;;37.33;21.25;;;;;;;5.53;59.62;101221.19;6180930;23;20043;-67
2023/01/20 08:41:01;;;;;;;39.05;22.27;;;;;;;5.53;59.78;101226.53;6181123;23;20021;-66
2023/01/20 08:43:27;;;;;;;43.17;22.33;;;;;;;5.53;59.76;101223.00;6180046;22;20073;-66
2023/01/20 08:46:01;;;;;;;40.38;22.58;;;;;;;5.55;59.80;101218.47;6181154;23;20040;-65
2023/01/20 08:48:28;;;;;;;41.47;21.50;;;;;;;5.55;59.71;101221.13;6180843;23;20013;-67
2023/01/20 08:50:55;;;;;;;42.75;23.65;;;;;;;5.56;59.83;101223.72;6181200;23;20550;-66
2023/01/20 08:53:21;;;;;;;40.65;22.40;;;;;;;5.56;59.57;101234.38;6178984;22;20017;-66
2023/01/20 08:55:55;;;;;;;42.33;21.75;;;;;;;5.57;59.84;101227.25;6177959;23;20390;-66
2023/01/20 08:58:22;;;;;;;40.47;23.17;;;;;;;5.58;59.93;101229.84;6178299;23;20094;-66
2023/01/20 09:00:51;;;;;;;42.92;22.67;;;;;;;5.57;60.01;101229.91;6178572;23;20020;-67
2023/01/20 09:03:17;;;;;;;47.47;23.85;;;;;;;5.60;59.88;101235.97;6178375;23;20018;-66
2023/01/20 09:05:44;;;;;;;42.50;24.52;;;;;;;5.61;59.95;101239.50;6178621;23;20494;-67
2023/01/20 09:08:11;;;;;;;42.83;24.55;;;;;;;5.61;59.77;101240.38;6152902;22;20017;-66
2023/01/20 09:10:38;;;;;;;44.45;23.35;;;;;;;5.64;60.07;101244.69;6180759;23;20017;-66
2023/01/20 09:13:05;;;;;;;44.55;23.65;;;;;;;5.66;59.93;101253.50;6180852;23;20020;-66
2023/01/20 09:15:32;;;;;;;47.85;25.83;;;;;;;5.68;60.09;101260.47;6179487;23;20021;-66
2023/01/20 09:17:59;;;;;;;42.90;24.25;;;;;;;5.71;60.01;101257.69;6181008;23;20037;-67
2023/01/20 09:20:27;;;;;;;40.50;23.73;;;;;;;5.75;60.07;101264.59;6180424;23;20313;-67
2023/01/20 09:22:54;;;;;;;45.58;24.25;;;;;;;5.78;60.07;101266.25;6180746;23;20020;-66
2023/01/20 09:25:20;;;;;;;43.72;22.73;;;;;;;5.77;59.96;101271.66;6180725;23;20335;-67
2023/01/20 09:27:47;;;;;;;40.70;23.92;;;;;;;5.74;60.01;101268.19;6180709;23;20093;-67
2023/01/20 09:30:14;;;;;;;43.65;23.90;;;;;;;5.76;60.04;101260.13;6180785;23;20023;-66
2023/01/20 09:32:40;;;;;;;40.78;23.60;;;;;;;5.75;60.14;101261.94;6180370;23;20050;-67
2023/01/20 09:35:07;;;;;;;40.63;22.35;;;;;;;5.79;60.01;101265.34;6181232;23;20104;-67
2023/01/20 09:43:53;;;;;;;37.45;21.23;;;;;;;5.79;60.21;101264.47;6180882;23;20388;-66
2023/01/20 09:46:41;;;;;;;37.45;21.63;;;;;;;5.80;59.90;101266.19;6180505;23;20025;-67
2023/01/20 09:55:34;;;;;;;27.88;17.85;;;;;;;5.84;60.15;101271.31;6178494;22;20789;-67
2023/01/20 09:58:15;;;;;;;27.73;18.42;;;;;;;5.83;60.15;101271.38;6180731;23;20062;-66
2023/01/20 10:00:50;;;;;;;29.98;17.60;;;;;;;5.82;59.94;101264.31;6180711;23;20018;-67
2023/01/20 10:03:52;;;;;;;30.10;19.05;;;;;;;5.81;60.16;101262.59;6180105;23;20456;-67
2023/01/20 10:06:32;;;;;;;28.33;17.80;;;;;;;5.84;60.25;101274.00;6176342;23;20017;-67
2023/01/20 10:09:08;;;;;;;30.60;18.58;;;;;;;5.87;60.33;101276.50;6181921;23;20510;-66
2023/01/20 10:11:39;;;;;;;31.25;19.08;;;;;;;5.90;60.31;101273.75;6181761;23;20092;-68
2023/01/20 10:14:35;;;;;;;27.35;16.80;;;;;;;5.91;60.31;101277.28;6181787;23;20042;-67
2023/01/20 10:17:26;;;;;;;28.45;16.92;;;;;;;5.87;60.17;101279.19;6177599;23;20070;-67
2023/01/20 10:20:03;;;;;;;30.67;18.58;;;;;;;5.85;60.57;101281.03;6181709;23;20020;-67
2023/01/20 10:22:42;;;;;;;26.55;17.30;;;;;;;5.85;60.22;101290.84;6181722;23;20024;-67
2023/01/20 10:25:14;;;;;;;30.30;18.33;;;;;;;5.85;60.27;101293.50;6182653;23;20024;-67
2023/01/20 10:27:50;;;;;;;29.40;18.15;;;;;;;5.87;60.30;101299.63;6181959;22;20343;-67
2023/01/20 10:30:20;;;;;;;28.17;18.90;;;;;;;5.89;60.32;101297.78;6182083;23;20013;-67
2023/01/20 10:32:57;;;;;;;28.80;18.80;;;;;;;5.90;60.18;101294.19;6181407;23;20020;-67
2023/01/20 10:35:26;;;;;;;29.33;18.63;;;;;;;5.90;60.29;101288.88;6182184;23;20021;-67
2023/01/20 10:37:55;;;;;;;27.75;18.33;;;;;;;5.90;60.34;101300.41;6181715;23;20013;-67
2023/01/20 10:40:41;;;;;;;33.10;19.55;;;;;;;5.91;60.29;101291.47;6181988;22;20021;-67
2023/01/20 10:43:16;;;;;;;26.58;17.77;;;;;;;5.89;60.42;101295.09;6181401;23;20013;-66
2023/01/20 10:46:01;;;;;;;26.70;17.58;;;;;;;5.89;60.37;101295.09;6182065;23;20424;-66
2023/01/20 10:48:40;;;;;;;29.52;18.42;;;;;;;5.87;60.32;101296.97;6182103;23;20064;-68
2023/01/20 10:51:27;;;;;;;26.88;17.67;;;;;;;5.85;60.37;101290.84;6181555;22;20021;-68
2023/01/20 10:54:00;;;;;;;24.27;16.15;;;;;;;5.78;60.26;101290.25;6181539;23;20017;-66
2023/01/20 10:56:39;;;;;;;26.45;17.50;;;;;;;5.74;60.44;101286.00;6181952;23;20074;-67
2023/01/20 10:59:18;;;;;;;25.05;16.77;;;;;;;5.75;60.34;101283.25;6181787;23;20014;-66
2023/01/20 11:01:49;;;;;;;26.30;16.83;;;;;;;5.77;60.51;101285.00;6182053;23;20017;-66
2023/01/20 11:04:32;;;;;;;26.15;17.10;;;;;;;5.80;60.45;101288.38;6181207;22;20028;-67
2023/01/20 11:06:59;;;;;;;24.10;16.27;;;;;;;5.80;60.46;101284.84;6155659;22;20031;-67
2023/01/20 11:09:33;;;;;;;24.58;17.13;;;;;;;5.81;60.47;101289.25;6182202;23;20358;-67
2023/01/20 11:12:03;;;;;;;25.15;16.77;;;;;;;5.79;60.52;101286.66;6182170;23;20135;-67
2023/01/20 11:14:30;;;;;;;23.83;15.95;;;;;;;5.79;60.59;101289.31;6181858;23;20019;-67
2023/01/20 11:17:05;;;;;;;25.45;16.98;;;;;;;5.78;60.61;101294.72;6181797;23;20545;-67
2023/01/20 11:19:53;;;;;;;25.33;16.00;;;;;;;5.77;60.59;101298.31;6182233;23;20017;-66
2023/01/20 11:22:34;;;;;;;24.67;16.25;;;;;;;5.74;60.54;101292.19;6181756;23;20248;-67
2023/01/20 11:25:03;;;;;;;23.27;15.35;;;;;;;5.74;60.56;101293.97;6181662;23;20070;-67
2023/01/20 11:27:44;;;;;;;24.60;16.58;;;;;;;5.75;60.67;101299.25;6180776;22;20053;-67
2023/01/20 11:30:30;;;;;;;22.95;16.05;;;;;;;5.73;60.77;101295.78;6181348;23;20017;-67
2023/01/20 11:33:25;;;;;;;22.13;16.48;;;;;;;5.77;60.73;101288.53;6181680;23;20016;-67
2023/01/20 11:36:17;;;;;;;22.80;15.50;;;;;;;5.81;60.79;101283.91;6181787;23;20017;-67
2023/01/20 11:38:48;;;;;;;22.40;15.82;;;;;;;5.85;60.74;101291.72;6184600;23;20021;-67
2023/01/20 11:41:19;;;;;;;24.52;16.42;;;;;;;5.84;60.50;101299.78;6181584;23;20100;-67
2023/01/20 11:43:47;;;;;;;23.20;16.60;;;;;;;5.84;60.67;101297.09;6181460;23;20389;-67
2023/01/20 11:46:15;;;;;;;26.10;16.73;;;;;;;5.82;60.78;101299.84;6181579;23;20021;-67